createdAt,value
2023-01-13T00:04:05.288Z,10.66
2023-01-13T00:09:06.857Z,10.70
2023-01-13T00:14:08.508Z,10.86
2023-01-13T00:19:10.028Z,10.75
2023-01-13T00:24:11.574Z,10.86
2023-01-13T00:29:13.119Z,10.72
2023-01-13T00:34:14.677Z,10.67
2023-01-13T00:39:16.284Z,10.44
2023-01-13T00:44:17.889Z,10.62
2023-01-13T00:49:19.472Z,10.52
2023-01-13T00:54:21.031Z,10.44
2023-01-13T00:59:22.603Z,10.58
2023-01-13T01:04:24.173Z,10.72
2023-01-13T01:09:32.722Z,10.74
2023-01-13T01:14:34.671Z,10.80
2023-01-13T01:19:38.884Z,10.74
2023-01-13T01:24:40.431Z,10.77
2023-01-13T01:29:41.959Z,10.84
2023-01-13T01:34:43.485Z,10.88
2023-01-13T01:39:45.016Z,10.93
2023-01-13T01:44:52.614Z,10.94
2023-01-13T01:49:55.080Z,11.01
2023-01-13T01:54:59.622Z,10.93
2023-01-13T02:00:01.461Z,10.97
2023-01-13T02:05:03.088Z,10.90
2023-01-13T02:10:06.773Z,10.28
2023-01-13T02:15:15.507Z,8.78
2023-01-13T02:20:20.046Z,8.41
2023-01-13T02:25:24.403Z,8.29
2023-01-13T02:30:55.828Z,8.31
2023-01-13T02:36:16.910Z,8.44
2023-01-13T02:41:43.525Z,8.51
2023-01-13T02:46:51.050Z,8.58
2023-01-13T02:51:54.882Z,8.46
2023-01-13T02:56:58.263Z,8.39
2023-01-13T03:02:01.178Z,8.37
2023-01-13T03:07:09.856Z,8.24
2023-01-13T03:12:20.355Z,8.19
2023-01-13T03:17:39.946Z,8.00
2023-01-13T03:22:47.931Z,7.87
2023-01-13T03:28:11.963Z,7.85
2023-01-13T03:33:39.541Z,7.89
2023-01-13T03:38:43.428Z,7.93
2023-01-13T03:44:14.099Z,7.89
2023-01-13T03:49:19.319Z,7.98
2023-01-13T03:54:21.762Z,8.00
2023-01-13T03:59:26.019Z,8.07
2023-01-13T04:04:33.118Z,8.18
2023-01-13T04:09:50.891Z,8.27
2023-01-13T04:14:52.842Z,8.04
2023-01-13T04:19:54.184Z,7.99
2023-01-13T04:24:55.481Z,7.96
2023-01-13T04:29:56.776Z,7.78
2023-01-13T04:34:58.106Z,7.66
2023-01-13T04:39:59.424Z,7.69
2023-01-13T04:45:00.787Z,7.62
2023-01-13T04:50:02.125Z,7.63
2023-01-13T04:55:03.580Z,7.64
2023-01-13T05:00:06.073Z,7.57
2023-01-13T05:05:07.824Z,7.56
2023-01-13T05:10:09.601Z,7.54
2023-01-13T05:15:33.528Z,7.46
2023-01-13T05:20:34.887Z,7.13
2023-01-13T05:25:38.522Z,7.03
2023-01-13T05:30:44.541Z,7.14
2023-01-13T05:35:46.794Z,7.23
2023-01-13T05:41:06.800Z,7.21
2023-01-13T05:46:09.290Z,7.14
2023-01-13T05:51:11.572Z,7.07
2023-01-13T05:56:12.996Z,6.82
2023-01-13T06:01:14.368Z,6.72
2023-01-13T06:06:16.039Z,6.65
2023-01-13T06:11:17.399Z,6.57
2023-01-13T06:16:18.849Z,6.45
2023-01-13T06:21:20.198Z,6.55
2023-01-13T06:26:23.022Z,6.68
2023-01-13T06:31:25.553Z,6.57
2023-01-13T06:36:30.892Z,6.51
2023-01-13T06:41:51.463Z,6.51
2023-01-13T06:46:52.914Z,6.70
2023-01-13T06:51:54.257Z,6.65
2023-01-13T06:56:55.681Z,6.80
2023-01-13T07:01:57.158Z,6.78
2023-01-13T07:06:58.669Z,6.92
2023-01-13T07:11:59.972Z,6.93
2023-01-13T07:17:01.316Z,7.13
2023-01-13T07:22:02.696Z,7.06
2023-01-13T07:27:04.101Z,7.15
2023-01-13T07:32:06.885Z,7.08
2023-01-13T07:37:08.265Z,7.06
2023-01-13T07:42:28.102Z,7.19
2023-01-13T07:47:29.385Z,7.33
2023-01-13T07:52:30.696Z,7.44
2023-01-13T07:57:32.026Z,7.58
2023-01-13T08:02:33.430Z,7.69
2023-01-13T08:07:34.902Z,7.81
2023-01-13T08:12:56.757Z,7.91
2023-01-13T08:17:59.356Z,7.89
2023-01-13T08:23:01.067Z,7.89
2023-01-13T08:28:02.403Z,7.88
2023-01-13T08:33:07.234Z,7.94
2023-01-13T08:38:09.119Z,8.26
2023-01-13T08:43:10.649Z,8.64
2023-01-13T08:48:12.178Z,9.56
2023-01-13T08:53:13.573Z,9.27
2023-01-13T08:58:16.193Z,9.36
2023-01-13T09:03:17.720Z,9.66
2023-01-13T09:08:19.161Z,9.73
2023-01-13T09:13:21.886Z,9.94
2023-01-13T09:18:23.362Z,10.12
2023-01-13T09:23:24.673Z,9.38
2023-01-13T09:28:25.987Z,8.82
2023-01-13T09:33:46.097Z,9.82
2023-01-13T09:38:50.262Z,10.56
2023-01-13T09:43:56.065Z,10.98
2023-01-13T09:48:57.710Z,11.35
2023-01-13T09:54:11.354Z,11.28
2023-01-13T09:59:12.789Z,11.27
2023-01-13T10:04:15.276Z,12.02
2023-01-13T10:09:21.799Z,12.22
2023-01-13T10:14:23.097Z,12.60
2023-01-13T10:19:27.559Z,12.61
2023-01-13T10:24:47.539Z,12.45
2023-01-13T10:29:48.869Z,12.82
2023-01-13T10:34:51.463Z,12.49
2023-01-13T10:39:57.190Z,12.68
2023-01-13T10:44:59.653Z,12.62
2023-01-13T10:50:00.924Z,12.86
2023-01-13T10:55:02.646Z,12.83
2023-01-13T11:00:04.551Z,13.25
2023-01-13T11:05:15.228Z,13.30
2023-01-13T11:10:16.863Z,13.36
2023-01-13T11:15:23.695Z,13.63
2023-01-13T11:20:32.322Z,13.42
2023-01-13T11:25:44.451Z,12.91
2023-01-13T11:30:45.790Z,13.97
2023-01-13T11:36:01.327Z,13.90
2023-01-13T11:41:08.914Z,12.09
2023-01-13T11:46:10.909Z,11.16
2023-01-13T11:51:15.088Z,13.02
2023-01-13T11:56:24.542Z,13.48
2023-01-13T12:01:32.058Z,13.16
2023-01-13T12:06:38.557Z,13.08
2023-01-13T12:12:10.644Z,12.13
2023-01-13T12:17:20.355Z,10.89
2023-01-13T12:22:26.855Z,11.39
2023-01-13T12:27:30.959Z,12.01
2023-01-13T12:32:37.961Z,13.10
2023-01-13T12:37:48.556Z,13.16
2023-01-13T12:43:11.551Z,13.15
2023-01-13T12:48:31.358Z,12.74
2023-01-13T12:53:33.905Z,11.56
2023-01-13T12:58:35.242Z,12.96
2023-01-13T13:03:36.700Z,13.36
2023-01-13T13:09:03.172Z,12.89
2023-01-13T13:14:07.177Z,12.92
2023-01-13T13:19:17.757Z,12.83
2023-01-13T13:24:19.143Z,12.68
2023-01-13T13:29:39.350Z,12.44
2023-01-13T13:34:46.760Z,11.78
2023-01-13T13:40:06.970Z,12.14
2023-01-13T13:45:35.054Z,12.15
2023-01-13T13:50:36.383Z,11.86
2023-01-13T13:55:38.560Z,12.17
2023-01-13T14:00:39.880Z,12.29
2023-01-13T14:05:52.551Z,12.79
2023-01-13T14:10:54.000Z,11.66
2023-01-13T14:16:05.342Z,10.59
2023-01-13T14:21:12.493Z,10.45
2023-01-13T14:26:14.995Z,10.36
2023-01-13T14:31:16.628Z,10.08
2023-01-13T14:36:18.149Z,9.87
2023-01-13T14:41:21.676Z,10.12
2023-01-13T14:46:25.255Z,10.09
2023-01-13T14:51:28.064Z,9.80
2023-01-13T14:56:36.258Z,9.75
2023-01-13T15:01:39.424Z,9.58
2023-01-13T15:06:45.546Z,9.45
2023-01-13T15:11:47.395Z,9.30
2023-01-13T15:16:48.708Z,9.08
2023-01-13T15:21:50.015Z,8.93
2023-01-13T15:26:52.000Z,8.85
2023-01-13T15:31:53.311Z,8.69
2023-01-13T15:36:54.615Z,8.67
2023-01-13T15:42:15.583Z,8.63
2023-01-13T15:47:16.904Z,8.76
2023-01-13T15:52:21.410Z,8.61
2023-01-13T15:57:22.865Z,8.51
2023-01-13T16:02:25.322Z,8.48
2023-01-13T16:07:26.702Z,8.54
2023-01-13T16:12:28.041Z,8.56
2023-01-13T16:17:30.724Z,8.53
2023-01-13T16:22:32.154Z,8.44
2023-01-13T16:27:33.481Z,8.45
2023-01-13T16:32:34.807Z,8.43
2023-01-13T16:37:36.147Z,8.38
2023-01-13T16:42:37.487Z,8.38
2023-01-13T16:47:39.759Z,8.32
2023-01-13T16:52:41.121Z,8.21
2023-01-13T16:57:42.457Z,8.16
2023-01-13T17:02:43.914Z,8.29
2023-01-13T17:07:46.705Z,8.27
2023-01-13T17:12:48.041Z,8.21
2023-01-13T17:17:52.017Z,8.27
2023-01-13T17:22:58.288Z,8.29
2023-01-13T17:28:00.210Z,8.20
2023-01-13T17:33:01.595Z,8.27
2023-01-13T17:38:03.006Z,8.15
2023-01-13T17:43:04.434Z,8.18
2023-01-13T17:48:06.073Z,8.09
2023-01-13T17:53:07.389Z,7.95
2023-01-13T17:58:08.693Z,7.79
2023-01-13T18:03:10.748Z,7.64
2023-01-13T18:08:12.059Z,7.57
2023-01-13T18:13:13.377Z,7.62
2023-01-13T18:18:14.714Z,7.70
2023-01-13T18:23:36.207Z,7.64
2023-01-13T18:28:37.529Z,7.54
2023-01-13T18:33:38.888Z,7.77
2023-01-13T18:38:40.174Z,7.94
2023-01-13T18:43:41.463Z,8.02
2023-01-13T18:48:42.868Z,8.02
2023-01-13T18:53:44.194Z,8.07
2023-01-13T18:58:52.192Z,8.04
2023-01-13T19:03:54.482Z,8.02
2023-01-13T19:08:55.956Z,7.88
2023-01-13T19:13:57.311Z,7.91
2023-01-13T19:18:59.879Z,7.89
2023-01-13T19:24:01.471Z,7.91
2023-01-13T19:29:02.832Z,7.74
2023-01-13T19:34:04.170Z,7.76
2023-01-13T19:39:05.502Z,7.80
2023-01-13T19:44:26.665Z,7.76
2023-01-13T19:49:27.980Z,7.77
2023-01-13T19:54:29.305Z,7.69
2023-01-13T19:59:32.334Z,7.64
2023-01-13T20:04:37.589Z,7.64
2023-01-13T20:09:39.413Z,7.67
2023-01-13T20:14:41.186Z,7.66
2023-01-13T20:19:42.649Z,7.62
2023-01-13T20:24:44.012Z,7.67
2023-01-13T20:29:45.323Z,7.66
2023-01-13T20:34:46.614Z,7.61
2023-01-13T20:39:48.227Z,7.67
2023-01-13T20:44:49.608Z,7.66
2023-01-13T20:49:50.956Z,7.72
2023-01-13T20:54:52.290Z,7.80
2023-01-13T20:59:53.625Z,7.78
2023-01-13T21:04:54.974Z,7.89
2023-01-13T21:09:57.735Z,7.88
2023-01-13T21:15:17.451Z,7.79
2023-01-13T21:20:18.845Z,7.78
2023-01-13T21:25:20.239Z,7.70
2023-01-13T21:30:21.607Z,7.71
2023-01-13T21:35:22.923Z,7.66
2023-01-13T21:40:24.263Z,7.70
2023-01-13T21:45:44.531Z,7.66
2023-01-13T21:50:45.862Z,7.56
2023-01-13T21:55:50.245Z,7.58
2023-01-13T22:00:51.877Z,7.48
2023-01-13T22:05:55.259Z,7.31
2023-01-13T22:11:00.216Z,7.21
2023-01-13T22:16:04.663Z,7.22
2023-01-13T22:21:06.173Z,7.22
2023-01-13T22:26:08.038Z,7.27
2023-01-13T22:31:09.529Z,7.26
2023-01-13T22:36:10.945Z,7.33
2023-01-13T22:41:12.279Z,7.36
2023-01-13T22:46:13.611Z,7.33
2023-01-13T22:51:16.018Z,7.27
2023-01-13T22:56:18.882Z,7.09
2023-01-13T23:01:20.518Z,6.78
2023-01-13T23:06:23.014Z,6.61
2023-01-13T23:11:26.644Z,6.49
2023-01-13T23:16:29.338Z,6.42
2023-01-13T23:21:31.924Z,6.19
2023-01-13T23:26:33.735Z,6.02
2023-01-13T23:31:35.072Z,5.99
2023-01-13T23:36:40.853Z,6.05
2023-01-13T23:41:42.192Z,6.08
2023-01-13T23:46:43.523Z,6.09
2023-01-13T23:51:44.819Z,6.14
2023-01-13T23:56:46.127Z,6.20
